createdAt,value
2023-11-24T00:02:23.777Z,6.80
2023-11-24T00:04:51.083Z,6.80
2023-11-24T00:07:18.559Z,6.70
2023-11-24T00:09:46.147Z,6.60
2023-11-24T00:12:14.210Z,6.60
2023-11-24T00:14:41.075Z,6.60
2023-11-24T00:17:07.966Z,6.50
2023-11-24T00:19:34.786Z,6.50
2023-11-24T00:22:01.735Z,6.40
2023-11-24T00:24:29.203Z,6.40
2023-11-24T00:26:56.490Z,6.30
2023-11-24T00:29:23.334Z,6.30
2023-11-24T00:31:50.317Z,6.30
2023-11-24T00:34:17.240Z,6.20
2023-11-24T00:36:44.417Z,6.30
2023-11-24T00:39:11.662Z,6.30
2023-11-24T00:41:38.694Z,6.20
2023-11-24T00:44:05.726Z,6.20
2023-11-24T00:46:33.562Z,6.20
2023-11-24T00:49:01.985Z,6.20
2023-11-24T00:51:29.170Z,6.20
2023-11-24T00:53:56.588Z,6.20
2023-11-24T00:56:23.431Z,6.20
2023-11-24T00:58:52.212Z,6.30
2023-11-24T01:01:20.159Z,6.30
2023-11-24T01:03:47.378Z,6.30
2023-11-24T01:06:14.379Z,6.30
2023-11-24T01:08:41.429Z,6.30
2023-11-24T01:11:11.145Z,6.40
2023-11-24T01:13:40.000Z,6.40
2023-11-24T01:16:07.228Z,6.40
2023-11-24T01:18:37.590Z,6.40
2023-11-24T01:21:08.239Z,6.40
2023-11-24T01:23:36.639Z,6.40
2023-11-24T01:26:04.415Z,6.50
2023-11-24T01:28:31.391Z,6.50
2023-11-24T01:30:58.741Z,6.50
2023-11-24T01:33:25.758Z,6.50
2023-11-24T01:35:53.922Z,6.50
2023-11-24T01:38:20.772Z,6.50
2023-11-24T01:40:48.003Z,6.50
2023-11-24T01:43:15.254Z,6.50
2023-11-24T01:45:42.358Z,6.50
2023-11-24T01:48:10.485Z,6.50
2023-11-24T01:50:39.214Z,6.50
2023-11-24T01:53:06.771Z,6.50
2023-11-24T01:55:33.963Z,6.50
2023-11-24T01:58:01.057Z,6.50
2023-11-24T02:00:28.559Z,6.50
2023-11-24T02:02:58.826Z,6.50
2023-11-24T02:05:26.084Z,6.50
2023-11-24T02:07:53.923Z,6.50
2023-11-24T02:10:22.982Z,6.50
2023-11-24T02:12:52.058Z,6.50
2023-11-24T02:15:19.539Z,6.50
2023-11-24T02:17:46.797Z,6.50
2023-11-24T02:20:16.373Z,6.50
2023-11-24T02:22:44.317Z,6.50
2023-11-24T02:25:12.395Z,6.50
2023-11-24T02:27:39.503Z,6.50
2023-11-24T02:30:07.588Z,6.50
2023-11-24T02:32:37.315Z,6.50
2023-11-24T02:35:06.369Z,6.50
2023-11-24T02:37:33.655Z,6.50
2023-11-24T02:40:00.741Z,6.50
2023-11-24T02:42:27.853Z,6.40
2023-11-24T02:44:54.916Z,6.40
2023-11-24T02:47:22.275Z,6.30
2023-11-24T02:49:49.341Z,6.20
2023-11-24T02:52:16.204Z,6.20
2023-11-24T02:54:43.386Z,6.00
2023-11-24T02:57:10.675Z,5.80
2023-11-24T02:59:37.593Z,5.50
2023-11-24T03:02:04.823Z,5.40
2023-11-24T03:04:32.277Z,5.40
2023-11-24T03:06:59.377Z,5.40
2023-11-24T03:09:27.410Z,5.30
2023-11-24T03:11:54.585Z,5.30
2023-11-24T03:14:21.843Z,5.20
2023-11-24T03:16:49.807Z,5.10
2023-11-24T03:19:17.987Z,5.20
2023-11-24T03:21:45.768Z,5.20
2023-11-24T03:24:13.764Z,5.20
2023-11-24T03:26:40.886Z,5.20
2023-11-24T03:29:07.884Z,5.10
2023-11-24T03:31:34.938Z,5.10
2023-11-24T03:34:02.640Z,5.10
2023-11-24T03:36:30.091Z,5.10
2023-11-24T03:38:57.065Z,5.10
2023-11-24T03:41:24.158Z,5.10
2023-11-24T03:43:51.298Z,5.10
2023-11-24T03:46:18.597Z,5.10
2023-11-24T03:48:47.739Z,5.10
2023-11-24T03:51:21.306Z,5.20
2023-11-24T03:53:48.491Z,5.10
2023-11-24T03:56:17.571Z,5.10
2023-11-24T03:58:45.447Z,5.10
2023-11-24T04:01:16.703Z,5.00
2023-11-24T04:03:49.558Z,5.00
2023-11-24T04:06:17.002Z,5.00
2023-11-24T04:08:44.324Z,5.10
2023-11-24T04:11:12.041Z,5.10
2023-11-24T04:13:39.858Z,5.00
2023-11-24T04:16:08.456Z,5.00
2023-11-24T04:18:35.509Z,5.00
2023-11-24T04:21:02.505Z,4.90
2023-11-24T04:23:29.342Z,4.90
2023-11-24T04:25:56.272Z,4.90
2023-11-24T04:28:23.126Z,4.90
2023-11-24T04:30:50.387Z,4.80
2023-11-24T04:33:17.319Z,4.80
2023-11-24T04:35:45.392Z,4.80
2023-11-24T04:38:12.365Z,4.80
2023-11-24T04:40:39.170Z,4.80
2023-11-24T04:43:06.351Z,4.70
2023-11-24T04:45:33.483Z,4.60
2023-11-24T04:48:00.439Z,4.60
2023-11-24T04:50:27.395Z,4.60
2023-11-24T04:52:54.438Z,4.60
2023-11-24T04:55:21.381Z,4.60
2023-11-24T04:57:51.347Z,4.50
2023-11-24T05:00:19.649Z,4.50
2023-11-24T05:02:47.389Z,4.50
2023-11-24T05:05:14.670Z,4.50
2023-11-24T05:07:41.813Z,4.50
2023-11-24T05:10:09.416Z,4.50
2023-11-24T05:12:36.774Z,4.50
2023-11-24T05:15:08.955Z,4.40
2023-11-24T05:17:36.630Z,4.50
2023-11-24T05:20:07.124Z,4.40
2023-11-24T05:22:34.637Z,4.40
2023-11-24T05:25:01.544Z,4.40
2023-11-24T05:27:28.615Z,4.40
2023-11-24T05:29:55.531Z,4.50
2023-11-24T05:32:22.970Z,4.50
2023-11-24T05:34:51.955Z,4.40
2023-11-24T05:37:19.205Z,4.40
2023-11-24T05:39:46.126Z,4.40
2023-11-24T05:42:13.478Z,4.40
2023-11-24T05:44:40.283Z,4.40
2023-11-24T05:47:08.368Z,4.40
2023-11-24T05:49:35.448Z,4.30
2023-11-24T05:52:02.529Z,4.20
2023-11-24T05:54:32.083Z,4.20
2023-11-24T05:56:59.001Z,4.10
2023-11-24T05:59:27.424Z,4.10
2023-11-24T06:01:56.050Z,4.00
2023-11-24T06:04:23.017Z,4.00
2023-11-24T06:06:50.717Z,3.90
2023-11-24T06:09:17.728Z,3.90
2023-11-24T06:11:44.663Z,3.90
2023-11-24T06:14:12.941Z,3.80
2023-11-24T06:16:39.779Z,3.90
2023-11-24T06:19:06.849Z,3.90
2023-11-24T06:21:33.748Z,3.90
2023-11-24T06:24:01.056Z,3.80
2023-11-24T06:26:28.961Z,3.70
2023-11-24T06:28:55.870Z,3.80
2023-11-24T06:31:22.784Z,3.80
2023-11-24T06:33:49.641Z,3.70
2023-11-24T06:36:16.715Z,3.80
2023-11-24T06:38:43.966Z,3.80
2023-11-24T06:41:10.932Z,3.70
2023-11-24T06:43:37.847Z,3.70
2023-11-24T06:46:06.953Z,3.60
2023-11-24T06:48:33.955Z,3.70
2023-11-24T06:51:00.869Z,3.70
2023-11-24T06:53:28.156Z,3.70
2023-11-24T06:55:55.222Z,3.70
2023-11-24T06:58:22.035Z,3.70
2023-11-24T07:00:51.767Z,3.60
2023-11-24T07:03:19.340Z,3.60
2023-11-24T07:05:47.922Z,3.60
2023-11-24T07:08:17.969Z,3.60
2023-11-24T07:10:45.543Z,3.70
2023-11-24T07:13:12.586Z,3.70
2023-11-24T07:15:39.987Z,3.70
2023-11-24T07:18:06.982Z,3.70
2023-11-24T07:20:34.457Z,3.70
2023-11-24T07:23:01.409Z,3.70
2023-11-24T07:25:28.263Z,3.80
2023-11-24T07:27:55.165Z,3.80
2023-11-24T07:30:24.029Z,3.90
2023-11-24T07:32:54.492Z,3.90
2023-11-24T07:35:21.477Z,3.90
2023-11-24T07:37:48.410Z,4.00
2023-11-24T07:40:16.169Z,4.00
2023-11-24T07:42:45.608Z,4.10
2023-11-24T07:45:13.381Z,4.30
2023-11-24T07:47:41.277Z,4.30
2023-11-24T07:50:08.881Z,4.40
2023-11-24T07:52:37.252Z,4.40
2023-11-24T07:55:06.633Z,4.40
2023-11-24T07:57:33.955Z,4.40
2023-11-24T08:00:01.876Z,4.40
2023-11-24T08:02:29.118Z,4.40
2023-11-24T08:04:56.524Z,4.50
2023-11-24T08:07:23.896Z,4.60
2023-11-24T08:09:50.929Z,4.70
2023-11-24T08:12:18.192Z,4.80
2023-11-24T08:14:45.221Z,4.80
2023-11-24T08:17:12.269Z,4.80
2023-11-24T08:19:39.203Z,4.90
2023-11-24T08:22:06.234Z,5.00
2023-11-24T08:24:34.734Z,5.00
2023-11-24T08:27:01.978Z,5.00
2023-11-24T08:29:29.042Z,5.00
2023-11-24T08:31:57.967Z,5.00
2023-11-24T08:34:24.985Z,4.90
2023-11-24T08:36:52.018Z,4.90
2023-11-24T08:39:19.165Z,4.90
2023-11-24T08:41:50.088Z,4.80
2023-11-24T08:44:18.275Z,4.70
2023-11-24T08:46:45.565Z,4.70
2023-11-24T08:49:12.889Z,4.80
2023-11-24T08:51:40.629Z,4.80
2023-11-24T08:54:11.362Z,4.70
2023-11-24T08:56:39.728Z,4.70
2023-11-24T08:59:09.832Z,4.70
2023-11-24T09:01:38.133Z,4.80
2023-11-24T09:04:05.531Z,4.80
2023-11-24T09:06:33.829Z,4.80
2023-11-24T09:09:01.211Z,4.80
2023-11-24T09:11:28.123Z,4.70
2023-11-24T09:13:55.571Z,4.70
2023-11-24T09:16:22.604Z,4.70
2023-11-24T09:18:49.700Z,4.70
2023-11-24T09:21:18.963Z,4.70
2023-11-24T09:23:46.596Z,4.80
2023-11-24T09:26:13.881Z,4.90
2023-11-24T09:28:41.027Z,4.90
2023-11-24T09:31:13.897Z,5.00
2023-11-24T09:33:41.499Z,5.00
2023-11-24T09:36:09.501Z,5.00
2023-11-24T09:38:36.421Z,5.00
2023-11-24T09:41:09.510Z,5.10
2023-11-24T09:43:39.880Z,5.10
2023-11-24T09:46:08.897Z,5.10
2023-11-24T09:48:36.720Z,5.20
2023-11-24T09:51:07.193Z,5.20
2023-11-24T09:53:34.878Z,5.20
2023-11-24T09:56:03.884Z,5.20
2023-11-24T09:58:32.149Z,5.20
2023-11-24T10:01:28.619Z,5.20
2023-11-24T10:04:00.552Z,5.20
2023-11-24T10:06:28.769Z,5.20
2023-11-24T10:08:57.608Z,5.20
2023-11-24T10:11:30.164Z,5.20
2023-11-24T10:13:57.606Z,5.20
2023-11-24T10:16:25.055Z,5.10
2023-11-24T10:18:53.070Z,5.10
2023-11-24T10:21:29.885Z,5.10
2023-11-24T10:23:59.857Z,5.00
2023-11-24T10:26:27.241Z,5.00
2023-11-24T10:28:55.980Z,5.00
2023-11-24T10:31:22.930Z,4.90
2023-11-24T10:33:50.638Z,4.90
2023-11-24T10:36:19.566Z,4.90
2023-11-24T10:38:48.103Z,4.90
2023-11-24T10:41:24.108Z,4.90
2023-11-24T10:43:51.940Z,4.90
2023-11-24T10:46:22.162Z,4.90
2023-11-24T10:48:59.193Z,4.90
2023-11-24T10:52:07.775Z,4.90
2023-11-24T10:54:36.233Z,4.90
2023-11-24T10:57:06.389Z,4.90
2023-11-24T10:59:37.084Z,4.90
2023-11-24T11:02:07.901Z,4.90
2023-11-24T11:04:37.547Z,4.90
2023-11-24T11:07:16.056Z,4.90
2023-11-24T11:09:52.707Z,5.00
2023-11-24T11:12:41.323Z,5.00
2023-11-24T11:15:11.749Z,4.90
2023-11-24T11:17:39.971Z,4.90
2023-11-24T11:20:21.206Z,4.80
2023-11-24T11:22:48.634Z,4.80
2023-11-24T11:25:24.280Z,4.70
2023-11-24T11:27:51.374Z,4.70
2023-11-24T11:30:23.896Z,4.60
2023-11-24T11:33:13.763Z,4.40
2023-11-24T11:35:43.882Z,4.30
2023-11-24T11:38:13.859Z,4.00
2023-11-24T11:40:45.422Z,3.80
2023-11-24T11:43:16.211Z,3.80
2023-11-24T11:45:51.063Z,3.60
2023-11-24T11:48:18.420Z,3.50
2023-11-24T11:51:06.186Z,3.30
2023-11-24T11:53:35.294Z,3.20
2023-11-24T11:56:07.522Z,3.20
2023-11-24T11:58:36.263Z,3.20
2023-11-24T12:01:07.995Z,3.20
2023-11-24T12:03:35.889Z,3.20
2023-11-24T12:06:07.143Z,3.20
2023-11-24T12:08:34.655Z,3.30
2023-11-24T12:11:01.756Z,3.40
2023-11-24T12:13:30.190Z,3.40
2023-11-24T12:16:00.687Z,3.40
2023-11-24T12:18:28.118Z,3.40
2023-11-24T12:20:55.267Z,3.50
2023-11-24T12:23:24.616Z,3.60
2023-11-24T12:25:52.188Z,3.70
2023-11-24T12:28:19.794Z,3.80
2023-11-24T12:30:47.714Z,3.80
2023-11-24T12:33:20.150Z,3.80
2023-11-24T12:35:56.187Z,3.80
2023-11-24T12:38:24.122Z,3.90
2023-11-24T12:40:52.339Z,4.00
2023-11-24T12:43:20.751Z,4.10
2023-11-24T12:45:53.312Z,4.10
2023-11-24T12:48:21.051Z,4.10
2023-11-24T12:50:49.084Z,4.00
2023-11-24T12:53:18.007Z,3.90
2023-11-24T12:55:45.524Z,3.80
2023-11-24T12:58:12.815Z,3.80
2023-11-24T13:00:40.475Z,3.80
2023-11-24T13:03:08.669Z,3.80
2023-11-24T13:05:37.248Z,3.80
2023-11-24T13:08:04.311Z,3.70
2023-11-24T13:10:33.866Z,3.50
2023-11-24T13:13:02.099Z,3.60
2023-11-24T13:15:29.764Z,3.50
2023-11-24T13:17:57.260Z,3.50
2023-11-24T13:20:29.953Z,3.40
2023-11-24T13:22:57.547Z,3.40
2023-11-24T13:25:27.843Z,3.40
2023-11-24T13:27:55.282Z,3.40
2023-11-24T13:30:23.286Z,3.20
2023-11-24T13:32:51.292Z,3.20
2023-11-24T13:35:20.600Z,3.20
2023-11-24T13:37:49.004Z,3.20
2023-11-24T13:40:20.626Z,3.10
2023-11-24T13:42:47.998Z,3.10
2023-11-24T13:45:17.995Z,3.10
2023-11-24T13:47:45.617Z,3.10
2023-11-24T13:50:14.969Z,3.10
2023-11-24T13:52:43.500Z,3.10
2023-11-24T13:55:12.590Z,3.00
2023-11-24T13:57:40.878Z,3.00
2023-11-24T14:00:12.101Z,3.00
2023-11-24T14:02:39.494Z,3.00
2023-11-24T14:05:06.980Z,3.00
2023-11-24T14:07:33.829Z,3.00
2023-11-24T14:10:00.982Z,3.00
2023-11-24T14:12:30.132Z,3.00
2023-11-24T14:14:56.978Z,3.00
2023-11-24T14:17:24.008Z,2.90
2023-11-24T14:19:50.938Z,2.90
2023-11-24T14:22:22.171Z,2.90
2023-11-24T14:24:49.261Z,2.90
2023-11-24T14:27:16.393Z,2.90
2023-11-24T14:29:44.206Z,2.90
2023-11-24T14:32:11.910Z,2.90
2023-11-24T14:34:39.577Z,2.90
2023-11-24T14:37:07.538Z,2.90
2023-11-24T14:39:44.575Z,2.90
2023-11-24T14:42:12.704Z,2.90
2023-11-24T14:44:40.560Z,2.90
2023-11-24T14:49:34.868Z,2.90
2023-11-24T14:52:06.423Z,2.80
2023-11-24T14:54:34.932Z,2.80
2023-11-24T14:57:02.066Z,2.70
2023-11-24T14:59:30.602Z,2.70
2023-11-24T15:02:05.987Z,2.70
2023-11-24T15:04:33.553Z,2.70
2023-11-24T15:07:01.954Z,2.80
2023-11-24T15:09:29.225Z,2.70
2023-11-24T15:11:56.104Z,2.70
2023-11-24T15:14:37.539Z,2.70
2023-11-24T15:17:09.561Z,2.70
2023-11-24T15:19:37.651Z,2.70
2023-11-24T15:22:10.608Z,2.60
2023-11-24T15:24:39.785Z,2.60
2023-11-24T15:27:08.966Z,2.60
2023-11-24T15:29:38.603Z,2.50
2023-11-24T15:32:13.076Z,2.50
2023-11-24T15:34:39.972Z,2.50
2023-11-24T15:37:08.122Z,2.50
2023-11-24T15:39:45.884Z,2.50
2023-11-24T15:42:18.102Z,2.50
2023-11-24T15:44:47.423Z,2.50
2023-11-24T15:47:14.510Z,2.50
2023-11-24T15:49:42.887Z,2.40
2023-11-24T15:52:11.259Z,2.40
2023-11-24T15:54:38.769Z,2.40
2023-11-24T15:57:06.030Z,2.40
2023-11-24T15:59:38.251Z,2.40
2023-11-24T16:02:07.192Z,2.50
2023-11-24T16:04:35.694Z,2.50
2023-11-24T16:07:08.314Z,2.50
2023-11-24T16:09:38.644Z,2.50
2023-11-24T16:12:13.740Z,2.60
2023-11-24T16:14:41.152Z,2.50
2023-11-24T16:17:10.906Z,2.50
2023-11-24T16:19:37.858Z,2.50
2023-11-24T16:22:06.287Z,2.40
2023-11-24T16:24:33.688Z,2.40
2023-11-24T16:27:00.591Z,2.40
2023-11-24T16:29:27.646Z,2.40
2023-11-24T16:31:55.995Z,2.40
2023-11-24T16:34:26.787Z,2.40
2023-11-24T16:36:57.556Z,2.40
2023-11-24T16:39:28.516Z,2.40
2023-11-24T16:41:56.264Z,2.40
2023-11-24T16:44:23.910Z,2.40
2023-11-24T16:46:58.850Z,2.40
2023-11-24T16:49:26.616Z,2.40
2023-11-24T16:51:54.177Z,2.40
2023-11-24T16:54:21.260Z,2.40
2023-11-24T16:56:48.429Z,2.30
2023-11-24T16:59:19.523Z,2.40
2023-11-24T17:01:46.636Z,2.40
2023-11-24T17:04:13.810Z,2.40
2023-11-24T17:06:40.852Z,2.40
2023-11-24T17:09:12.937Z,2.40
2023-11-24T17:11:43.347Z,2.40
2023-11-24T17:14:10.410Z,2.40
2023-11-24T17:16:37.554Z,2.40
2023-11-24T17:19:04.481Z,2.40
2023-11-24T17:21:31.347Z,2.40
2023-11-24T17:23:58.251Z,2.40
2023-11-24T17:26:27.132Z,2.40
2023-11-24T17:28:54.725Z,2.40
2023-11-24T17:31:24.746Z,2.50
2023-11-24T17:33:57.685Z,2.50
2023-11-24T17:36:25.072Z,2.40
2023-11-24T17:38:51.993Z,2.50
2023-11-24T17:41:19.306Z,2.60
2023-11-24T17:43:46.284Z,2.60
2023-11-24T17:46:13.488Z,2.60
2023-11-24T17:48:42.856Z,2.60
2023-11-24T17:51:09.985Z,2.70
2023-11-24T17:53:37.256Z,2.70
2023-11-24T17:56:05.085Z,2.70
2023-11-24T17:58:32.006Z,2.80
2023-11-24T18:00:59.249Z,2.80
2023-11-24T18:03:26.368Z,2.80
2023-11-24T18:05:54.163Z,2.80
2023-11-24T18:08:23.629Z,2.80
2023-11-24T18:10:50.830Z,2.80
2023-11-24T18:13:18.395Z,2.80
2023-11-24T18:15:45.506Z,2.80
2023-11-24T18:18:12.837Z,2.80
2023-11-24T18:20:41.299Z,2.80
2023-11-24T18:23:08.349Z,2.80
2023-11-24T18:25:39.750Z,2.80
2023-11-24T18:28:09.424Z,2.80
2023-11-24T18:30:38.504Z,2.80
2023-11-24T18:33:09.706Z,2.80
2023-11-24T18:35:37.678Z,2.90
2023-11-24T18:38:05.025Z,2.90
2023-11-24T18:40:34.894Z,2.90
2023-11-24T18:43:01.855Z,2.90
2023-11-24T18:45:28.952Z,2.90
2023-11-24T18:47:55.982Z,2.90
2023-11-24T18:50:23.512Z,2.90
2023-11-24T18:52:50.462Z,2.90
2023-11-24T18:55:18.451Z,2.90
2023-11-24T18:57:47.851Z,2.90
2023-11-24T19:00:19.886Z,2.90
2023-11-24T19:02:49.183Z,3.00
2023-11-24T19:05:17.185Z,3.00
2023-11-24T19:07:44.320Z,3.00
2023-11-24T19:10:18.479Z,3.00
2023-11-24T19:12:46.784Z,3.00
2023-11-24T19:15:13.770Z,3.00
2023-11-24T19:17:40.683Z,3.00
2023-11-24T19:20:08.768Z,3.00
2023-11-24T19:22:36.390Z,3.00
2023-11-24T19:25:03.657Z,3.00
2023-11-24T19:27:30.556Z,3.00
2023-11-24T19:29:57.714Z,3.00
2023-11-24T19:32:25.879Z,3.00
2023-11-24T19:34:53.991Z,3.00
2023-11-24T19:37:20.986Z,3.00
2023-11-24T19:39:49.370Z,3.00
2023-11-24T19:42:17.761Z,3.00
2023-11-24T19:44:46.055Z,3.00
2023-11-24T19:47:12.954Z,3.00
2023-11-24T19:49:40.209Z,3.00
2023-11-24T19:52:07.654Z,3.00
2023-11-24T19:54:34.651Z,3.00
2023-11-24T19:57:01.970Z,3.00
2023-11-24T19:59:28.891Z,3.00
2023-11-24T20:01:55.969Z,3.00
2023-11-24T20:04:23.023Z,2.90
2023-11-24T20:06:49.992Z,3.00
2023-11-24T20:09:17.348Z,3.00
2023-11-24T20:11:44.340Z,2.90
2023-11-24T20:14:11.424Z,3.00
2023-11-24T20:16:38.471Z,3.00
2023-11-24T20:19:05.594Z,3.00
2023-11-24T20:21:32.526Z,3.00
2023-11-24T20:23:59.420Z,2.90
2023-11-24T20:26:27.560Z,2.90
2023-11-24T20:28:55.451Z,2.90
2023-11-24T20:31:22.640Z,2.90
2023-11-24T20:33:51.435Z,2.90
2023-11-24T20:36:22.772Z,2.90
2023-11-24T20:38:50.691Z,2.90
2023-11-24T20:41:24.734Z,2.90
2023-11-24T20:43:51.902Z,2.80
2023-11-24T20:46:19.055Z,2.80
2023-11-24T20:48:46.713Z,2.80
2023-11-24T20:51:14.774Z,2.70
2023-11-24T20:53:42.157Z,2.80
2023-11-24T20:56:10.667Z,2.80
2023-11-24T20:58:38.258Z,2.80
2023-11-24T21:01:05.455Z,2.70
2023-11-24T21:03:32.534Z,2.80
2023-11-24T21:06:00.231Z,2.80
2023-11-24T21:08:28.082Z,2.70
2023-11-24T21:10:55.066Z,2.70
2023-11-24T21:13:25.261Z,2.60
2023-11-24T21:15:52.404Z,2.60
2023-11-24T21:18:19.504Z,2.60
2023-11-24T21:20:48.763Z,2.50
2023-11-24T21:23:16.677Z,2.50
2023-11-24T21:25:44.395Z,2.50
2023-11-24T21:28:11.884Z,2.50
2023-11-24T21:30:41.517Z,2.50
2023-11-24T21:33:09.221Z,2.50
2023-11-24T21:35:36.725Z,2.50
2023-11-24T21:38:05.120Z,2.50
2023-11-24T21:40:32.854Z,2.50
2023-11-24T21:43:00.171Z,2.40
2023-11-24T21:45:27.139Z,2.50
2023-11-24T21:47:55.569Z,2.40
2023-11-24T21:50:23.390Z,2.40
2023-11-24T21:52:50.350Z,2.40
2023-11-24T21:55:17.626Z,2.30
2023-11-24T21:57:44.570Z,2.30
2023-11-24T22:00:18.248Z,2.30
2023-11-24T22:02:45.824Z,2.30
2023-11-24T22:05:14.467Z,2.40
2023-11-24T22:07:42.183Z,2.20
2023-11-24T22:10:10.514Z,2.20
2023-11-24T22:12:39.059Z,2.30
2023-11-24T22:15:08.660Z,2.30
2023-11-24T22:17:36.086Z,2.30
2023-11-24T22:20:14.508Z,2.40
2023-11-24T22:22:41.857Z,2.50
2023-11-24T22:25:09.529Z,2.60
2023-11-24T22:27:36.718Z,2.60
2023-11-24T22:30:05.816Z,2.50
2023-11-24T22:32:33.843Z,2.50
2023-11-24T22:35:01.151Z,2.50
2023-11-24T22:37:29.034Z,2.60
2023-11-24T22:39:55.956Z,2.60
2023-11-24T22:42:23.359Z,2.60
2023-11-24T22:44:51.276Z,2.70
2023-11-24T22:47:18.983Z,2.70
2023-11-24T22:49:46.539Z,2.60
2023-11-24T22:52:13.425Z,2.60
2023-11-24T22:54:40.451Z,2.60
2023-11-24T22:57:07.565Z,2.50
2023-11-24T22:59:35.735Z,2.50
2023-11-24T23:02:05.755Z,2.50
2023-11-24T23:04:32.937Z,2.50
2023-11-24T23:06:59.936Z,2.40
2023-11-24T23:09:26.794Z,2.50
2023-11-24T23:11:53.729Z,2.50
2023-11-24T23:14:20.610Z,2.50
2023-11-24T23:16:48.697Z,2.50
2023-11-24T23:19:16.269Z,2.50
2023-11-24T23:21:44.785Z,2.50
2023-11-24T23:24:12.152Z,2.50
2023-11-24T23:26:39.767Z,2.50
2023-11-24T23:29:08.235Z,2.50
2023-11-24T23:31:35.648Z,2.50
2023-11-24T23:34:02.746Z,2.50
2023-11-24T23:36:29.859Z,2.50
2023-11-24T23:38:57.008Z,2.50
2023-11-24T23:41:24.018Z,2.60
2023-11-24T23:43:51.096Z,2.50
2023-11-24T23:46:18.412Z,2.60
2023-11-24T23:48:45.641Z,2.50
2023-11-24T23:51:12.747Z,2.50
2023-11-24T23:53:40.852Z,2.50
2023-11-24T23:56:08.168Z,2.50
2023-11-24T23:58:38.347Z,2.60
